sensor_id;sensor_type;location;lat;lon;timestamp;P1;durP1;ratioP1;P2;durP2;ratioP2
15818;SDS011;8010;53.986;12.106;2023-06-22T00:00:29;3.23;;;2.93;;
15818;SDS011;8010;53.986;12.106;2023-06-22T00:02:54;3.23;;;2.93;;
15818;SDS011;8010;53.986;12.106;2023-06-22T00:05:20;5.27;;;3.50;;
15818;SDS011;8010;53.986;12.106;2023-06-22T00:07:45;3.40;;;3.03;;
15818;SDS011;8010;53.986;12.106;2023-06-22T00:10:11;3.60;;;2.87;;
15818;SDS011;8010;53.986;12.106;2023-06-22T00:12:37;3.77;;;3.17;;
15818;SDS011;8010;53.986;12.106;2023-06-22T00:15:02;3.60;;;3.03;;
15818;SDS011;8010;53.986;12.106;2023-06-22T00:17:28;3.83;;;3.10;;
15818;SDS011;8010;53.986;12.106;2023-06-22T00:19:54;5.30;;;3.10;;
15818;SDS011;8010;53.986;12.106;2023-06-22T00:22:20;4.30;;;2.97;;
15818;SDS011;8010;53.986;12.106;2023-06-22T00:24:53;3.17;;;2.87;;
15818;SDS011;8010;53.986;12.106;2023-06-22T00:27:20;4.20;;;3.30;;
15818;SDS011;8010;53.986;12.106;2023-06-22T00:29:45;3.27;;;2.93;;
15818;SDS011;8010;53.986;12.106;2023-06-22T00:32:11;3.60;;;3.10;;
15818;SDS011;8010;53.986;12.106;2023-06-22T00:34:36;4.90;;;3.60;;
15818;SDS011;8010;53.986;12.106;2023-06-22T00:37:02;4.83;;;4.13;;
15818;SDS011;8010;53.986;12.106;2023-06-22T00:39:27;7.97;;;4.47;;
15818;SDS011;8010;53.986;12.106;2023-06-22T00:41:53;5.43;;;3.63;;
15818;SDS011;8010;53.986;12.106;2023-06-22T00:44:19;5.13;;;3.93;;
15818;SDS011;8010;53.986;12.106;2023-06-22T00:46:45;4.67;;;4.13;;
15818;SDS011;8010;53.986;12.106;2023-06-22T00:49:10;4.47;;;4.07;;
15818;SDS011;8010;53.986;12.106;2023-06-22T00:51:37;4.60;;;3.60;;
15818;SDS011;8010;53.986;12.106;2023-06-22T00:54:03;5.40;;;3.83;;
15818;SDS011;8010;53.986;12.106;2023-06-22T00:56:30;4.77;;;3.67;;
15818;SDS011;8010;53.986;12.106;2023-06-22T00:58:57;4.10;;;3.63;;
15818;SDS011;8010;53.986;12.106;2023-06-22T01:01:24;4.07;;;3.47;;
15818;SDS011;8010;53.986;12.106;2023-06-22T01:03:50;5.33;;;3.57;;
15818;SDS011;8010;53.986;12.106;2023-06-22T01:06:17;3.80;;;3.40;;
15818;SDS011;8010;53.986;12.106;2023-06-22T01:08:53;3.37;;;3.07;;
15818;SDS011;8010;53.986;12.106;2023-06-22T01:11:26;4.17;;;3.27;;
15818;SDS011;8010;53.986;12.106;2023-06-22T01:13:59;6.23;;;3.50;;
15818;SDS011;8010;53.986;12.106;2023-06-22T01:16:31;5.37;;;3.90;;
15818;SDS011;8010;53.986;12.106;2023-06-22T01:19:07;4.10;;;3.70;;
15818;SDS011;8010;53.986;12.106;2023-06-22T01:21:45;4.07;;;3.67;;
15818;SDS011;8010;53.986;12.106;2023-06-22T01:24:26;4.47;;;3.90;;
15818;SDS011;8010;53.986;12.106;2023-06-22T01:27:00;5.07;;;3.60;;
15818;SDS011;8010;53.986;12.106;2023-06-22T01:29:32;4.60;;;3.53;;
15818;SDS011;8010;53.986;12.106;2023-06-22T01:32:00;6.10;;;4.37;;
15818;SDS011;8010;53.986;12.106;2023-06-22T01:34:28;5.47;;;4.53;;
15818;SDS011;8010;53.986;12.106;2023-06-22T01:36:55;4.80;;;3.73;;
15818;SDS011;8010;53.986;12.106;2023-06-22T01:39:22;5.13;;;3.53;;
15818;SDS011;8010;53.986;12.106;2023-06-22T01:41:48;4.63;;;3.80;;
15818;SDS011;8010;53.986;12.106;2023-06-22T01:44:14;7.30;;;3.30;;
15818;SDS011;8010;53.986;12.106;2023-06-22T01:46:40;5.03;;;3.17;;
15818;SDS011;8010;53.986;12.106;2023-06-22T01:49:06;6.87;;;3.80;;
15818;SDS011;8010;53.986;12.106;2023-06-22T01:51:32;5.47;;;4.07;;
15818;SDS011;8010;53.986;12.106;2023-06-22T01:53:58;4.57;;;3.90;;
15818;SDS011;8010;53.986;12.106;2023-06-22T01:56:24;4.77;;;3.53;;
15818;SDS011;8010;53.986;12.106;2023-06-22T01:58:57;4.07;;;3.67;;
15818;SDS011;8010;53.986;12.106;2023-06-22T02:01:55;5.00;;;4.30;;
15818;SDS011;8010;53.986;12.106;2023-06-22T02:04:27;6.03;;;4.40;;
15818;SDS011;8010;53.986;12.106;2023-06-22T02:06:58;5.87;;;4.27;;
15818;SDS011;8010;53.986;12.106;2023-06-22T02:09:25;5.97;;;5.20;;
15818;SDS011;8010;53.986;12.106;2023-06-22T02:11:55;5.30;;;4.67;;
15818;SDS011;8010;53.986;12.106;2023-06-22T02:14:21;5.13;;;4.40;;
15818;SDS011;8010;53.986;12.106;2023-06-22T02:16:49;6.53;;;4.80;;
15818;SDS011;8010;53.986;12.106;2023-06-22T02:19:16;7.20;;;3.97;;
15818;SDS011;8010;53.986;12.106;2023-06-22T02:21:43;4.70;;;3.77;;
15818;SDS011;8010;53.986;12.106;2023-06-22T02:24:09;6.33;;;3.40;;
15818;SDS011;8010;53.986;12.106;2023-06-22T02:26:35;6.00;;;3.80;;
15818;SDS011;8010;53.986;12.106;2023-06-22T02:29:03;5.83;;;3.60;;
15818;SDS011;8010;53.986;12.106;2023-06-22T02:31:28;4.50;;;3.87;;
15818;SDS011;8010;53.986;12.106;2023-06-22T02:33:58;5.60;;;4.50;;
15818;SDS011;8010;53.986;12.106;2023-06-22T02:36:25;5.93;;;4.53;;
15818;SDS011;8010;53.986;12.106;2023-06-22T02:38:52;5.10;;;4.23;;
15818;SDS011;8010;53.986;12.106;2023-06-22T02:41:19;9.03;;;5.60;;
15818;SDS011;8010;53.986;12.106;2023-06-22T02:43:45;11.10;;;4.90;;
15818;SDS011;8010;53.986;12.106;2023-06-22T02:46:11;7.93;;;5.07;;
15818;SDS011;8010;53.986;12.106;2023-06-22T02:48:37;7.10;;;5.30;;
15818;SDS011;8010;53.986;12.106;2023-06-22T02:51:06;6.97;;;5.47;;
15818;SDS011;8010;53.986;12.106;2023-06-22T02:53:32;6.17;;;5.57;;
15818;SDS011;8010;53.986;12.106;2023-06-22T02:55:57;9.00;;;6.20;;
15818;SDS011;8010;53.986;12.106;2023-06-22T02:58:23;6.70;;;6.00;;
15818;SDS011;8010;53.986;12.106;2023-06-22T03:00:49;5.67;;;4.70;;
15818;SDS011;8010;53.986;12.106;2023-06-22T03:03:18;5.07;;;4.57;;
15818;SDS011;8010;53.986;12.106;2023-06-22T03:05:44;5.63;;;4.60;;
15818;SDS011;8010;53.986;12.106;2023-06-22T03:08:09;5.67;;;4.70;;
15818;SDS011;8010;53.986;12.106;2023-06-22T03:10:35;6.63;;;4.83;;
15818;SDS011;8010;53.986;12.106;2023-06-22T03:13:00;9.93;;;5.33;;
15818;SDS011;8010;53.986;12.106;2023-06-22T03:15:26;5.37;;;4.57;;
15818;SDS011;8010;53.986;12.106;2023-06-22T03:17:54;5.27;;;4.40;;
15818;SDS011;8010;53.986;12.106;2023-06-22T03:20:19;4.90;;;4.40;;
15818;SDS011;8010;53.986;12.106;2023-06-22T03:22:45;7.17;;;5.20;;
15818;SDS011;8010;53.986;12.106;2023-06-22T03:25:11;6.53;;;5.00;;
15818;SDS011;8010;53.986;12.106;2023-06-22T03:27:38;8.27;;;5.03;;
15818;SDS011;8010;53.986;12.106;2023-06-22T03:30:09;5.67;;;4.73;;
15818;SDS011;8010;53.986;12.106;2023-06-22T03:32:36;7.40;;;5.40;;
15818;SDS011;8010;53.986;12.106;2023-06-22T03:35:02;9.90;;;6.83;;
15818;SDS011;8010;53.986;12.106;2023-06-22T03:37:28;8.40;;;6.87;;
15818;SDS011;8010;53.986;12.106;2023-06-22T03:39:54;11.43;;;8.30;;
15818;SDS011;8010;53.986;12.106;2023-06-22T03:42:19;11.93;;;8.27;;
15818;SDS011;8010;53.986;12.106;2023-06-22T03:44:45;9.83;;;7.40;;
15818;SDS011;8010;53.986;12.106;2023-06-22T03:47:11;8.03;;;6.93;;
15818;SDS011;8010;53.986;12.106;2023-06-22T03:49:37;8.63;;;7.03;;
15818;SDS011;8010;53.986;12.106;2023-06-22T03:52:02;11.40;;;8.17;;
15818;SDS011;8010;53.986;12.106;2023-06-22T03:54:29;12.07;;;7.97;;
15818;SDS011;8010;53.986;12.106;2023-06-22T03:56:55;10.80;;;8.23;;
15818;SDS011;8010;53.986;12.106;2023-06-22T03:59:22;9.53;;;8.03;;
15818;SDS011;8010;53.986;12.106;2023-06-22T04:01:48;9.33;;;8.30;;
15818;SDS011;8010;53.986;12.106;2023-06-22T04:04:13;9.93;;;7.87;;
15818;SDS011;8010;53.986;12.106;2023-06-22T04:06:39;13.30;;;8.57;;
15818;SDS011;8010;53.986;12.106;2023-06-22T04:09:05;13.03;;;8.43;;
15818;SDS011;8010;53.986;12.106;2023-06-22T04:11:31;8.70;;;7.53;;
15818;SDS011;8010;53.986;12.106;2023-06-22T04:13:56;10.73;;;8.23;;
15818;SDS011;8010;53.986;12.106;2023-06-22T04:16:22;9.77;;;7.90;;
15818;SDS011;8010;53.986;12.106;2023-06-22T04:18:47;10.10;;;8.17;;
15818;SDS011;8010;53.986;12.106;2023-06-22T04:21:13;13.20;;;8.70;;
15818;SDS011;8010;53.986;12.106;2023-06-22T04:23:38;10.60;;;8.70;;
15818;SDS011;8010;53.986;12.106;2023-06-22T04:26:04;11.53;;;9.43;;
15818;SDS011;8010;53.986;12.106;2023-06-22T04:28:30;9.77;;;8.70;;
15818;SDS011;8010;53.986;12.106;2023-06-22T04:30:59;11.60;;;8.77;;
15818;SDS011;8010;53.986;12.106;2023-06-22T04:33:28;11.07;;;8.30;;
15818;SDS011;8010;53.986;12.106;2023-06-22T04:35:54;10.37;;;9.27;;
15818;SDS011;8010;53.986;12.106;2023-06-22T04:38:22;13.97;;;10.20;;
15818;SDS011;8010;53.986;12.106;2023-06-22T04:40:48;11.17;;;9.97;;
15818;SDS011;8010;53.986;12.106;2023-06-22T04:43:14;11.00;;;9.80;;
15818;SDS011;8010;53.986;12.106;2023-06-22T04:45:39;11.77;;;10.23;;
15818;SDS011;8010;53.986;12.106;2023-06-22T04:48:05;13.30;;;10.03;;
15818;SDS011;8010;53.986;12.106;2023-06-22T04:50:31;11.77;;;10.33;;
15818;SDS011;8010;53.986;12.106;2023-06-22T04:52:56;10.77;;;9.50;;
15818;SDS011;8010;53.986;12.106;2023-06-22T04:55:23;10.90;;;9.73;;
15818;SDS011;8010;53.986;12.106;2023-06-22T04:57:50;12.70;;;9.83;;
15818;SDS011;8010;53.986;12.106;2023-06-22T05:00:16;14.23;;;9.87;;
15818;SDS011;8010;53.986;12.106;2023-06-22T05:02:44;10.60;;;9.50;;
15818;SDS011;8010;53.986;12.106;2023-06-22T05:05:11;12.20;;;10.00;;
15818;SDS011;8010;53.986;12.106;2023-06-22T05:07:39;14.10;;;10.67;;
15818;SDS011;8010;53.986;12.106;2023-06-22T05:10:09;11.40;;;9.97;;
15818;SDS011;8010;53.986;12.106;2023-06-22T05:12:36;11.70;;;9.67;;
15818;SDS011;8010;53.986;12.106;2023-06-22T05:15:02;12.17;;;9.47;;
15818;SDS011;8010;53.986;12.106;2023-06-22T05:17:28;16.93;;;10.13;;
15818;SDS011;8010;53.986;12.106;2023-06-22T05:19:53;14.63;;;9.63;;
15818;SDS011;8010;53.986;12.106;2023-06-22T05:22:20;11.47;;;9.90;;
15818;SDS011;8010;53.986;12.106;2023-06-22T05:24:45;13.17;;;9.97;;
15818;SDS011;8010;53.986;12.106;2023-06-22T05:27:11;10.10;;;9.03;;
15818;SDS011;8010;53.986;12.106;2023-06-22T05:29:37;11.70;;;9.43;;
15818;SDS011;8010;53.986;12.106;2023-06-22T05:32:03;14.07;;;9.33;;
15818;SDS011;8010;53.986;12.106;2023-06-22T05:34:28;12.77;;;9.90;;
15818;SDS011;8010;53.986;12.106;2023-06-22T05:36:54;12.17;;;9.53;;
15818;SDS011;8010;53.986;12.106;2023-06-22T05:39:20;11.20;;;8.73;;
15818;SDS011;8010;53.986;12.106;2023-06-22T05:41:45;11.90;;;10.17;;
15818;SDS011;8010;53.986;12.106;2023-06-22T05:44:11;10.73;;;9.63;;
15818;SDS011;8010;53.986;12.106;2023-06-22T05:46:41;11.00;;;8.60;;
15818;SDS011;8010;53.986;12.106;2023-06-22T05:49:09;12.23;;;8.37;;
15818;SDS011;8010;53.986;12.106;2023-06-22T05:51:36;9.93;;;7.87;;
15818;SDS011;8010;53.986;12.106;2023-06-22T05:54:01;9.83;;;7.83;;
15818;SDS011;8010;53.986;12.106;2023-06-22T05:56:27;9.50;;;7.80;;
15818;SDS011;8010;53.986;12.106;2023-06-22T05:58:52;9.17;;;7.67;;
15818;SDS011;8010;53.986;12.106;2023-06-22T06:01:18;10.13;;;6.87;;
15818;SDS011;8010;53.986;12.106;2023-06-22T06:03:44;10.00;;;7.03;;
15818;SDS011;8010;53.986;12.106;2023-06-22T06:06:09;9.67;;;7.37;;
15818;SDS011;8010;53.986;12.106;2023-06-22T06:08:36;7.23;;;6.53;;
15818;SDS011;8010;53.986;12.106;2023-06-22T06:11:02;12.93;;;6.67;;
15818;SDS011;8010;53.986;12.106;2023-06-22T06:13:27;7.63;;;6.93;;
15818;SDS011;8010;53.986;12.106;2023-06-22T06:15:53;7.57;;;6.27;;
15818;SDS011;8010;53.986;12.106;2023-06-22T06:18:22;8.10;;;6.03;;
15818;SDS011;8010;53.986;12.106;2023-06-22T06:20:47;9.50;;;5.73;;
15818;SDS011;8010;53.986;12.106;2023-06-22T06:23:13;8.67;;;6.40;;
15818;SDS011;8010;53.986;12.106;2023-06-22T06:25:39;6.53;;;5.90;;
15818;SDS011;8010;53.986;12.106;2023-06-22T06:28:04;6.90;;;6.20;;
15818;SDS011;8010;53.986;12.106;2023-06-22T06:30:30;7.20;;;5.90;;
15818;SDS011;8010;53.986;12.106;2023-06-22T06:32:56;5.27;;;4.63;;
15818;SDS011;8010;53.986;12.106;2023-06-22T06:35:21;6.47;;;4.67;;
15818;SDS011;8010;53.986;12.106;2023-06-22T06:37:47;5.53;;;4.97;;
15818;SDS011;8010;53.986;12.106;2023-06-22T06:40:14;6.17;;;4.80;;
15818;SDS011;8010;53.986;12.106;2023-06-22T06:42:42;4.40;;;3.80;;
15818;SDS011;8010;53.986;12.106;2023-06-22T06:45:10;4.70;;;3.30;;
15818;SDS011;8010;53.986;12.106;2023-06-22T06:47:38;4.90;;;3.40;;
15818;SDS011;8010;53.986;12.106;2023-06-22T06:50:04;4.63;;;3.37;;
15818;SDS011;8010;53.986;12.106;2023-06-22T06:52:30;6.00;;;3.33;;
15818;SDS011;8010;53.986;12.106;2023-06-22T06:54:56;4.27;;;3.67;;
15818;SDS011;8010;53.986;12.106;2023-06-22T06:57:21;5.67;;;4.07;;
15818;SDS011;8010;53.986;12.106;2023-06-22T06:59:47;4.10;;;3.37;;
15818;SDS011;8010;53.986;12.106;2023-06-22T07:02:14;4.47;;;3.70;;
15818;SDS011;8010;53.986;12.106;2023-06-22T07:04:42;3.23;;;2.60;;
15818;SDS011;8010;53.986;12.106;2023-06-22T07:07:08;4.73;;;2.93;;
15818;SDS011;8010;53.986;12.106;2023-06-22T07:09:33;2.60;;;2.40;;
15818;SDS011;8010;53.986;12.106;2023-06-22T07:11:59;4.30;;;2.67;;
15818;SDS011;8010;53.986;12.106;2023-06-22T07:14:24;4.43;;;2.77;;
15818;SDS011;8010;53.986;12.106;2023-06-22T07:16:50;4.60;;;3.30;;
15818;SDS011;8010;53.986;12.106;2023-06-22T07:19:15;3.80;;;2.97;;
15818;SDS011;8010;53.986;12.106;2023-06-22T07:21:41;6.00;;;3.17;;
15818;SDS011;8010;53.986;12.106;2023-06-22T07:24:06;3.93;;;2.77;;
15818;SDS011;8010;53.986;12.106;2023-06-22T07:26:33;4.07;;;2.83;;
15818;SDS011;8010;53.986;12.106;2023-06-22T07:28:59;4.77;;;2.50;;
15818;SDS011;8010;53.986;12.106;2023-06-22T07:31:24;6.00;;;2.80;;
15818;SDS011;8010;53.986;12.106;2023-06-22T07:33:50;2.40;;;2.20;;
15818;SDS011;8010;53.986;12.106;2023-06-22T07:36:16;2.80;;;2.10;;
15818;SDS011;8010;53.986;12.106;2023-06-22T07:38:42;3.30;;;2.60;;
15818;SDS011;8010;53.986;12.106;2023-06-22T07:41:08;2.40;;;1.90;;
15818;SDS011;8010;53.986;12.106;2023-06-22T07:43:33;3.30;;;2.20;;
15818;SDS011;8010;53.986;12.106;2023-06-22T07:46:02;2.93;;;1.90;;
15818;SDS011;8010;53.986;12.106;2023-06-22T07:48:28;2.47;;;1.90;;
15818;SDS011;8010;53.986;12.106;2023-06-22T07:50:53;1.90;;;1.70;;
15818;SDS011;8010;53.986;12.106;2023-06-22T07:53:19;2.43;;;1.30;;
15818;SDS011;8010;53.986;12.106;2023-06-22T07:55:46;2.00;;;1.50;;
15818;SDS011;8010;53.986;12.106;2023-06-22T07:58:11;2.63;;;1.87;;
15818;SDS011;8010;53.986;12.106;2023-06-22T08:00:37;1.60;;;1.40;;
15818;SDS011;8010;53.986;12.106;2023-06-22T08:03:02;2.77;;;1.60;;
15818;SDS011;8010;53.986;12.106;2023-06-22T08:05:30;1.87;;;1.60;;
15818;SDS011;8010;53.986;12.106;2023-06-22T08:07:56;2.13;;;1.40;;
15818;SDS011;8010;53.986;12.106;2023-06-22T08:10:21;2.00;;;1.50;;
15818;SDS011;8010;53.986;12.106;2023-06-22T08:12:47;3.90;;;1.73;;
15818;SDS011;8010;53.986;12.106;2023-06-22T08:15:12;3.23;;;1.77;;
15818;SDS011;8010;53.986;12.106;2023-06-22T08:17:38;1.77;;;1.57;;
15818;SDS011;8010;53.986;12.106;2023-06-22T08:20:05;3.40;;;1.50;;
15818;SDS011;8010;53.986;12.106;2023-06-22T08:22:37;2.63;;;1.53;;
15818;SDS011;8010;53.986;12.106;2023-06-22T08:25:03;3.37;;;1.70;;
15818;SDS011;8010;53.986;12.106;2023-06-22T08:27:30;2.90;;;1.67;;
15818;SDS011;8010;53.986;12.106;2023-06-22T08:29:59;1.73;;;1.50;;
15818;SDS011;8010;53.986;12.106;2023-06-22T08:32:28;2.37;;;1.73;;
15818;SDS011;8010;53.986;12.106;2023-06-22T08:34:54;4.40;;;1.80;;
15818;SDS011;8010;53.986;12.106;2023-06-22T08:37:19;2.60;;;1.70;;
15818;SDS011;8010;53.986;12.106;2023-06-22T08:39:45;4.13;;;1.70;;
15818;SDS011;8010;53.986;12.106;2023-06-22T08:42:11;2.47;;;1.97;;
15818;SDS011;8010;53.986;12.106;2023-06-22T08:44:37;3.17;;;2.10;;
15818;SDS011;8010;53.986;12.106;2023-06-22T08:47:03;3.30;;;1.67;;
15818;SDS011;8010;53.986;12.106;2023-06-22T08:49:28;2.23;;;1.70;;
15818;SDS011;8010;53.986;12.106;2023-06-22T08:51:54;3.23;;;2.00;;
15818;SDS011;8010;53.986;12.106;2023-06-22T08:54:21;2.73;;;2.20;;
15818;SDS011;8010;53.986;12.106;2023-06-22T08:56:47;3.23;;;1.93;;
15818;SDS011;8010;53.986;12.106;2023-06-22T08:59:13;2.10;;;1.90;;
15818;SDS011;8010;53.986;12.106;2023-06-22T09:01:38;5.40;;;1.87;;
15818;SDS011;8010;53.986;12.106;2023-06-22T09:04:04;1.70;;;1.53;;
15818;SDS011;8010;53.986;12.106;2023-06-22T09:06:31;2.63;;;2.17;;
15818;SDS011;8010;53.986;12.106;2023-06-22T09:08:56;5.50;;;1.80;;
15818;SDS011;8010;53.986;12.106;2023-06-22T09:11:24;3.33;;;1.90;;
15818;SDS011;8010;53.986;12.106;2023-06-22T09:13:50;3.73;;;1.70;;
15818;SDS011;8010;53.986;12.106;2023-06-22T09:16:17;1.90;;;1.70;;
15818;SDS011;8010;53.986;12.106;2023-06-22T09:18:42;2.30;;;1.83;;
15818;SDS011;8010;53.986;12.106;2023-06-22T09:21:11;2.67;;;1.60;;
15818;SDS011;8010;53.986;12.106;2023-06-22T09:23:37;2.73;;;2.10;;
15818;SDS011;8010;53.986;12.106;2023-06-22T09:26:02;2.40;;;1.73;;
15818;SDS011;8010;53.986;12.106;2023-06-22T09:28:29;1.97;;;1.73;;
15818;SDS011;8010;53.986;12.106;2023-06-22T09:30:54;2.73;;;1.70;;
15818;SDS011;8010;53.986;12.106;2023-06-22T09:33:23;2.23;;;1.70;;
15818;SDS011;8010;53.986;12.106;2023-06-22T09:35:49;3.60;;;2.00;;
15818;SDS011;8010;53.986;12.106;2023-06-22T09:38:15;3.03;;;2.07;;
15818;SDS011;8010;53.986;12.106;2023-06-22T09:40:41;2.50;;;1.93;;
15818;SDS011;8010;53.986;12.106;2023-06-22T09:43:07;3.00;;;1.90;;
15818;SDS011;8010;53.986;12.106;2023-06-22T09:45:32;1.93;;;1.67;;
15818;SDS011;8010;53.986;12.106;2023-06-22T09:47:58;2.90;;;2.20;;
15818;SDS011;8010;53.986;12.106;2023-06-22T09:50:23;3.70;;;1.87;;
15818;SDS011;8010;53.986;12.106;2023-06-22T09:52:49;2.87;;;1.90;;
15818;SDS011;8010;53.986;12.106;2023-06-22T09:55:19;2.87;;;1.87;;
15818;SDS011;8010;53.986;12.106;2023-06-22T09:57:45;2.53;;;1.87;;
15818;SDS011;8010;53.986;12.106;2023-06-22T10:00:12;2.67;;;1.97;;
15818;SDS011;8010;53.986;12.106;2023-06-22T10:02:41;4.97;;;2.07;;
15818;SDS011;8010;53.986;12.106;2023-06-22T10:05:06;3.87;;;1.90;;
15818;SDS011;8010;53.986;12.106;2023-06-22T10:07:32;1.90;;;1.80;;
15818;SDS011;8010;53.986;12.106;2023-06-22T10:09:58;3.03;;;1.90;;
15818;SDS011;8010;53.986;12.106;2023-06-22T10:12:24;3.53;;;2.00;;
15818;SDS011;8010;53.986;12.106;2023-06-22T10:14:50;7.10;;;1.80;;
15818;SDS011;8010;53.986;12.106;2023-06-22T10:17:15;2.37;;;1.93;;
15818;SDS011;8010;53.986;12.106;2023-06-22T10:19:41;1.80;;;1.53;;
15818;SDS011;8010;53.986;12.106;2023-06-22T10:22:06;3.00;;;1.93;;
15818;SDS011;8010;53.986;12.106;2023-06-22T10:24:32;2.97;;;2.10;;
15818;SDS011;8010;53.986;12.106;2023-06-22T10:26:57;1.77;;;1.67;;
15818;SDS011;8010;53.986;12.106;2023-06-22T10:29:23;3.57;;;2.00;;
15818;SDS011;8010;53.986;12.106;2023-06-22T10:31:48;2.33;;;1.90;;
15818;SDS011;8010;53.986;12.106;2023-06-22T10:34:14;2.13;;;1.93;;
15818;SDS011;8010;53.986;12.106;2023-06-22T10:36:40;2.83;;;2.00;;
15818;SDS011;8010;53.986;12.106;2023-06-22T10:39:05;2.63;;;1.90;;
15818;SDS011;8010;53.986;12.106;2023-06-22T10:41:31;2.43;;;1.97;;
15818;SDS011;8010;53.986;12.106;2023-06-22T10:43:56;4.53;;;2.33;;
15818;SDS011;8010;53.986;12.106;2023-06-22T10:46:24;4.93;;;2.57;;
15818;SDS011;8010;53.986;12.106;2023-06-22T10:48:50;3.17;;;2.70;;
15818;SDS011;8010;53.986;12.106;2023-06-22T10:51:19;3.17;;;2.60;;
15818;SDS011;8010;53.986;12.106;2023-06-22T10:53:44;4.20;;;2.20;;
15818;SDS011;8010;53.986;12.106;2023-06-22T10:56:10;2.30;;;1.87;;
15818;SDS011;8010;53.986;12.106;2023-06-22T10:58:35;2.03;;;1.83;;
15818;SDS011;8010;53.986;12.106;2023-06-22T11:01:01;3.45;;;2.00;;
15818;SDS011;8010;53.986;12.106;2023-06-22T11:03:28;3.78;;;1.90;;
15818;SDS011;8010;53.986;12.106;2023-06-22T11:05:53;4.18;;;2.03;;
15818;SDS011;8010;53.986;12.106;2023-06-22T11:08:19;4.43;;;2.10;;
15818;SDS011;8010;53.986;12.106;2023-06-22T11:10:44;4.55;;;2.45;;
15818;SDS011;8010;53.986;12.106;2023-06-22T11:13:10;2.28;;;2.03;;
15818;SDS011;8010;53.986;12.106;2023-06-22T11:15:36;2.03;;;1.83;;
15818;SDS011;8010;53.986;12.106;2023-06-22T11:18:01;2.70;;;2.30;;
15818;SDS011;8010;53.986;12.106;2023-06-22T11:20:27;3.13;;;2.30;;
15818;SDS011;8010;53.986;12.106;2023-06-22T11:22:52;2.70;;;2.30;;
15818;SDS011;8010;53.986;12.106;2023-06-22T11:25:18;3.83;;;2.23;;
15818;SDS011;8010;53.986;12.106;2023-06-22T11:27:43;3.07;;;2.17;;
15818;SDS011;8010;53.986;12.106;2023-06-22T11:30:09;3.10;;;2.50;;
15818;SDS011;8010;53.986;12.106;2023-06-22T11:32:35;2.57;;;2.00;;
15818;SDS011;8010;53.986;12.106;2023-06-22T11:35:00;2.70;;;2.03;;
15818;SDS011;8010;53.986;12.106;2023-06-22T11:37:26;3.73;;;2.70;;
15818;SDS011;8010;53.986;12.106;2023-06-22T11:39:51;3.23;;;2.93;;
15818;SDS011;8010;53.986;12.106;2023-06-22T11:42:19;3.17;;;2.70;;
15818;SDS011;8010;53.986;12.106;2023-06-22T11:44:45;3.63;;;2.17;;
15818;SDS011;8010;53.986;12.106;2023-06-22T11:47:10;2.93;;;2.17;;
15818;SDS011;8010;53.986;12.106;2023-06-22T11:49:36;4.73;;;2.10;;
15818;SDS011;8010;53.986;12.106;2023-06-22T11:52:01;3.20;;;2.40;;
15818;SDS011;8010;53.986;12.106;2023-06-22T11:54:27;3.30;;;2.10;;
15818;SDS011;8010;53.986;12.106;2023-06-22T11:56:53;2.13;;;1.93;;
15818;SDS011;8010;53.986;12.106;2023-06-22T11:59:18;3.83;;;2.10;;
15818;SDS011;8010;53.986;12.106;2023-06-22T12:01:44;2.60;;;2.23;;
15818;SDS011;8010;53.986;12.106;2023-06-22T12:04:09;2.60;;;1.93;;
15818;SDS011;8010;53.986;12.106;2023-06-22T12:06:37;3.17;;;2.33;;
15818;SDS011;8010;53.986;12.106;2023-06-22T12:09:03;4.57;;;2.30;;
15818;SDS011;8010;53.986;12.106;2023-06-22T12:11:31;2.87;;;1.80;;
15818;SDS011;8010;53.986;12.106;2023-06-22T12:13:57;2.73;;;2.30;;
15818;SDS011;8010;53.986;12.106;2023-06-22T12:16:26;4.57;;;2.40;;
15818;SDS011;8010;53.986;12.106;2023-06-22T12:18:52;2.97;;;2.27;;
15818;SDS011;8010;53.986;12.106;2023-06-22T12:21:18;3.78;;;2.50;;
15818;SDS011;8010;53.986;12.106;2023-06-22T12:23:44;3.20;;;2.40;;
15818;SDS011;8010;53.986;12.106;2023-06-22T12:26:09;4.25;;;2.45;;
15818;SDS011;8010;53.986;12.106;2023-06-22T12:28:35;4.05;;;2.38;;
15818;SDS011;8010;53.986;12.106;2023-06-22T12:31:00;4.95;;;2.60;;
15818;SDS011;8010;53.986;12.106;2023-06-22T12:33:26;2.38;;;1.90;;
15818;SDS011;8010;53.986;12.106;2023-06-22T12:35:51;4.22;;;2.60;;
15818;SDS011;8010;53.986;12.106;2023-06-22T12:38:17;3.67;;;2.53;;
15818;SDS011;8010;53.986;12.106;2023-06-22T12:40:43;2.28;;;2.08;;
15818;SDS011;8010;53.986;12.106;2023-06-22T12:43:08;4.63;;;1.95;;
15818;SDS011;8010;53.986;12.106;2023-06-22T12:45:34;2.42;;;2.17;;
15818;SDS011;8010;53.986;12.106;2023-06-22T12:47:59;2.50;;;2.00;;
15818;SDS011;8010;53.986;12.106;2023-06-22T12:50:25;2.10;;;1.88;;
15818;SDS011;8010;53.986;12.106;2023-06-22T12:52:51;4.95;;;2.28;;
15818;SDS011;8010;53.986;12.106;2023-06-22T12:55:16;2.50;;;2.20;;
15818;SDS011;8010;53.986;12.106;2023-06-22T12:57:42;5.15;;;2.38;;
15818;SDS011;8010;53.986;12.106;2023-06-22T13:00:08;3.80;;;1.92;;
15818;SDS011;8010;53.986;12.106;2023-06-22T13:02:35;2.85;;;2.22;;
15818;SDS011;8010;53.986;12.106;2023-06-22T13:05:01;2.65;;;2.10;;
15818;SDS011;8010;53.986;12.106;2023-06-22T13:07:27;2.45;;;2.17;;
15818;SDS011;8010;53.986;12.106;2023-06-22T13:09:52;2.85;;;2.00;;
15818;SDS011;8010;53.986;12.106;2023-06-22T13:12:18;3.67;;;2.20;;
15818;SDS011;8010;53.986;12.106;2023-06-22T13:14:45;2.28;;;2.08;;
15818;SDS011;8010;53.986;12.106;2023-06-22T13:17:11;3.33;;;2.40;;
15818;SDS011;8010;53.986;12.106;2023-06-22T13:19:38;5.40;;;2.45;;
15818;SDS011;8010;53.986;12.106;2023-06-22T13:22:03;1.95;;;1.83;;
15818;SDS011;8010;53.986;12.106;2023-06-22T13:24:30;2.80;;;1.88;;
15818;SDS011;8010;53.986;12.106;2023-06-22T13:26:55;2.83;;;2.10;;
15818;SDS011;8010;53.986;12.106;2023-06-22T13:29:21;2.40;;;1.75;;
15818;SDS011;8010;53.986;12.106;2023-06-22T13:31:46;2.83;;;2.10;;
15818;SDS011;8010;53.986;12.106;2023-06-22T13:34:12;4.13;;;2.35;;
15818;SDS011;8010;53.986;12.106;2023-06-22T13:36:37;2.53;;;1.77;;
15818;SDS011;8010;53.986;12.106;2023-06-22T13:39:03;2.50;;;2.28;;
15818;SDS011;8010;53.986;12.106;2023-06-22T13:41:29;4.82;;;2.28;;
15818;SDS011;8010;53.986;12.106;2023-06-22T13:43:54;2.80;;;1.88;;
15818;SDS011;8010;53.986;12.106;2023-06-22T13:46:20;2.05;;;1.85;;
15818;SDS011;8010;53.986;12.106;2023-06-22T13:48:45;2.15;;;1.90;;
15818;SDS011;8010;53.986;12.106;2023-06-22T13:51:11;2.13;;;1.80;;
15818;SDS011;8010;53.986;12.106;2023-06-22T13:53:36;3.03;;;1.95;;
15818;SDS011;8010;53.986;12.106;2023-06-22T13:56:02;6.63;;;2.83;;
15818;SDS011;8010;53.986;12.106;2023-06-22T13:58:28;3.45;;;2.30;;
15818;SDS011;8010;53.986;12.106;2023-06-22T14:00:53;4.78;;;2.20;;
15818;SDS011;8010;53.986;12.106;2023-06-22T14:03:19;2.70;;;1.90;;
15818;SDS011;8010;53.986;12.106;2023-06-22T14:05:44;3.55;;;2.08;;
15818;SDS011;8010;53.986;12.106;2023-06-22T14:08:11;5.40;;;2.88;;
15818;SDS011;8010;53.986;12.106;2023-06-22T14:10:36;2.15;;;1.52;;
15818;SDS011;8010;53.986;12.106;2023-06-22T14:13:02;2.20;;;1.48;;
15818;SDS011;8010;53.986;12.106;2023-06-22T14:15:30;3.13;;;1.55;;
15818;SDS011;8010;53.986;12.106;2023-06-22T14:17:56;3.40;;;2.25;;
15818;SDS011;8010;53.986;12.106;2023-06-22T14:20:22;2.42;;;1.80;;
15818;SDS011;8010;53.986;12.106;2023-06-22T14:22:47;2.67;;;1.70;;
15818;SDS011;8010;53.986;12.106;2023-06-22T14:25:13;1.70;;;1.50;;
15818;SDS011;8010;53.986;12.106;2023-06-22T14:27:38;2.70;;;1.97;;
15818;SDS011;8010;53.986;12.106;2023-06-22T14:30:04;2.40;;;1.90;;
15818;SDS011;8010;53.986;12.106;2023-06-22T14:32:30;2.73;;;1.90;;
15818;SDS011;8010;53.986;12.106;2023-06-22T14:34:55;7.40;;;3.43;;
15818;SDS011;8010;53.986;12.106;2023-06-22T14:37:21;6.97;;;2.60;;
15818;SDS011;8010;53.986;12.106;2023-06-22T14:39:46;1.80;;;1.67;;